Latest Weather Observations for Scoresby

IDV60801

Issued at 10:05 am EST Sunday 31 August 2014 (issued every 30 minutes, with the page automatically refreshed every 10 minutes)

About weather observations | Map of weather stations | Latest weather observations for VIC | Other Formats
Station Details ID: 086104 Name: SCORESBY RESEARCH INSTITUTE Lat: -37.87 Lon: 145.26 Height: 80.0 m
Data from the previous 72 hours. | See also: Recent months at Scoresby
Date/Time
EST
Temp
°C
App
Temp
°C
Dew
Point
Rel
Hum
%
Delta-T
°C
Wind Press
QNH
hPa
Press
MSL
hPa
Rain
since 9 am
mm
Dir
 
Spd
km/h
Gust
km/h
Spd
kts
Gust
kts
31/10:00am 16.8 12.1 7.7 55 4.6 NNE 22 30 12 16 - - 0.0
31/09:30am 15.9 11.7 7.4 57 4.2 NNE 19 32 10 17 - - 0.0
31/09:00am 15.3 11.6 7.8 61 3.8 NNE 17 32 9 17 - - 0.0
31/08:30am 14.5 10.7 7.5 63 3.5 NNE 17 24 9 13 - - 0.0
31/08:00am 13.7 9.9 7.5 66 3.1 NNE 17 24 9 13 - - 0.0
31/07:30am 12.8 9.7 7.3 69 2.7 NNE 13 24 7 13 - - 0.0
31/07:00am 12.0 8.9 7.1 72 2.4 NNE 13 20 7 11 - - 0.0
31/06:30am 10.9 8.1 6.8 76 1.9 NNE 11 17 6 9 - - 0.0
31/06:00am 11.3 8.9 6.8 74 2.1 NNE 9 17 5 9 - - 0.0
31/05:30am 11.4 9.0 6.9 74 2.2 NNE 9 17 5 9 - - 0.0
31/05:00am 11.2 8.8 6.9 75 2.1 NNE 9 15 5 8 - - 0.0
31/04:30am 11.2 8.4 6.9 75 2.1 NNE 11 17 6 9 - - 0.0
31/04:00am 11.2 8.7 6.7 74 2.1 NNE 9 15 5 8 - - 0.0
31/03:30am 11.4 9.4 7.1 75 2.1 NNE 7 17 4 9 - - 0.0
31/03:00am 11.1 8.7 7.0 76 2.0 NNE 9 17 5 9 - - 0.0
31/02:30am 11.1 9.1 7.2 77 1.9 NNE 7 13 4 7 - - 0.0
31/02:00am 10.9 8.9 7.0 77 1.9 NNE 7 11 4 6 - - 0.0
31/01:30am 11.1 9.1 7.2 77 1.9 NNE 7 13 4 7 - - 0.0
31/01:00am 11.4 9.1 7.3 76 2.0 NNE 9 13 5 7 - - 0.0
31/12:30am 11.4 9.4 7.3 76 2.0 NNE 7 11 4 6 - - 0.0
31/12:00am 11.1 9.4 7.6 79 1.7 NNE 6 7 3 4 - - 0.0
 
Date/Time
EST
Temp
°C
App
Temp
°C
Dew
Point
Rel
Hum
%
Delta-T
°C
Wind Press
QNH
hPa
Press
MSL
hPa
Rain
since 9 am
mm
Dir
 
Spd
km/h
Gust
km/h
Spd
kts
Gust
kts
30/11:30pm 11.1 9.4 7.6 79 1.7 NNE 6 9 3 5 - - 0.0
30/11:00pm 11.6 9.9 7.7 77 1.9 NNE 6 9 3 5 - - 0.0
30/10:30pm 11.9 10.3 7.8 76 2.0 NNE 6 9 3 5 - - 0.0
30/10:00pm 11.8 10.5 7.7 76 2.0 NNE 4 9 2 5 - - 0.0
30/09:30pm 11.8 10.5 7.5 75 2.1 NNE 4 7 2 4 - - 0.0
30/09:00pm 12.0 10.7 7.5 74 2.2 NE 4 6 2 3 - - 0.0
30/08:30pm 11.5 10.2 7.6 77 1.9 NE 4 7 2 4 - - 0.0
30/08:00pm 11.7 10.4 7.6 76 2.0 NE 4 7 2 4 - - 0.0
30/07:30pm 12.4 11.1 7.5 72 2.4 NE 4 6 2 3 - - 0.0
30/07:00pm 12.8 11.6 7.9 72 2.4 NE 4 7 2 4 - - 0.0
30/06:30pm 14.1 13.1 7.4 64 3.3 NNE 2 4 1 2 - - 0.0
30/06:00pm 16.8 15.8 7.2 53 4.8 N 2 6 1 3 - - 0.0
30/05:30pm 18.2 16.4 7.3 49 5.5 NNW 6 11 3 6 - - 0.0
30/05:00pm 19.1 17.2 7.5 47 5.9 NW 7 15 4 8 - - 0.0
30/04:30pm 19.2 16.9 7.6 47 5.9 N 9 15 5 8 - - 0.0
30/04:00pm 19.8 17.6 7.9 46 6.2 NNW 9 19 5 10 - - 0.0
30/03:30pm 20.1 17.6 8.1 46 6.2 NW 11 19 6 10 - - 0.0
30/03:00pm 20.1 18.1 8.8 48 6.0 N 9 17 5 9 - - 0.0
30/02:30pm 19.9 18.0 8.9 49 5.8 N 9 17 5 9 - - 0.0
30/02:00pm 19.8 18.0 9.4 51 5.5 NNE 9 17 5 9 - - 0.0
30/01:30pm 19.9 18.7 9.5 51 5.5 N 6 17 3 9 - - 0.0
30/01:00pm 18.9 16.5 8.6 51 5.4 N 11 19 6 10 - - 0.0
30/12:30pm 18.6 17.0 8.8 53 5.1 NNE 7 17 4 9 - - 0.0
30/12:00pm 18.0 15.8 8.0 52 5.1 N 9 19 5 10 - - 0.0
30/11:30am 17.2 14.7 8.4 56 4.5 N 11 13 6 7 - - 0.0
30/11:00am 16.6 15.0 8.8 60 4.0 N 7 11 4 6 - - 0.0
30/10:30am 15.2 13.4 8.0 62 3.6 NNE 7 13 4 7 - - 0.0
30/10:00am 13.7 12.0 8.3 70 2.7 NNE 7 11 4 6 - - 0.0
30/09:30am 12.4 10.9 8.5 77 1.9 NNE 6 11 3 6 - - 0.0
30/09:00am 11.4 9.9 8.4 82 1.5 NNE 6 11 3 6 - - 0.0
30/08:30am 10.0 8.2 8.1 88 0.9 NNE 7 11 4 6 - - 0.0
30/08:00am 9.6 7.8 7.9 89 0.8 NE 7 13 4 7 - - 0.0
30/07:30am 9.7 8.1 8.0 89 0.8 N 6 11 3 6 - - 0.0
30/07:00am 9.9 8.7 8.2 89 0.8 NNE 4 7 2 4 - - 0.0
30/06:30am 10.2 8.7 8.3 88 0.9 NNE 6 9 3 5 - - 0.0
30/06:00am 10.4 9.3 8.5 88 0.9 NNE 4 11 2 6 - - 0.0
30/05:30am 10.5 9.5 8.9 90 0.8 N 4 9 2 5 - - 0.0
30/05:00am 10.6 9.6 9.0 90 0.8 NNE 4 7 2 4 - - 0.0
30/04:30am 10.6 9.2 9.0 90 0.8 NNE 6 7 3 4 - - 0.0
30/04:00am 10.6 9.2 9.0 90 0.8 NE 6 9 3 5 - - 0.0
30/03:30am 10.8 9.5 9.1 89 0.8 N 6 9 3 5 - - 0.0
30/03:00am 10.8 10.6 9.2 90 0.8 CALM 0 4 0 2 - - 0.0
30/02:30am 10.8 10.3 9.4 91 0.7 NE 2 4 1 2 - - 0.0
30/02:00am 10.7 10.6 9.5 92 0.6 CALM 0 0 0 0 - - 0.0
30/01:30am 10.5 9.6 9.4 93 0.6 NNE 4 6 2 3 - - 0.0
30/01:00am 10.4 9.9 9.3 93 0.5 NNE 2 4 1 2 - - 0.0
30/12:30am 10.4 9.5 9.2 92 0.6 NE 4 7 2 4 - - 0.0
30/12:00am 10.4 9.5 9.2 92 0.6 NE 4 7 2 4 - - 0.0
 
Date/Time
EST
Temp
°C
App
Temp
°C
Dew
Point
Rel
Hum
%
Delta-T
°C
Wind Press
QNH
hPa
Press
MSL
hPa
Rain
since 9 am
mm
Dir
 
Spd
km/h
Gust
km/h
Spd
kts
Gust
kts
29/11:30pm 11.0 10.2 9.8 92 0.6 S 4 6 2 3 - - 0.0
29/11:00pm 11.2 10.8 9.8 91 0.7 S 2 6 1 3 - - 0.0
29/10:30pm 11.3 10.1 9.7 90 0.8 S 6 9 3 5 - - 0.0
29/10:00pm 11.5 10.4 9.9 90 0.8 S 6 11 3 6 - - 0.0
29/09:30pm 11.4 10.3 9.8 90 0.8 S 6 9 3 5 - - 0.0
29/09:00pm 11.6 10.2 9.7 88 1.0 S 7 11 4 6 - - 0.0
29/08:30pm 11.8 10.4 9.7 87 1.1 S 7 11 4 6 - - 0.0
29/08:00pm 11.6 11.5 9.5 87 1.1 CALM 0 4 0 2 - - 0.0
29/07:30pm 11.5 10.2 9.2 86 1.2 S 6 7 3 4 - - 0.0
29/07:00pm 11.6 11.1 9.3 86 1.2 SSW 2 9 1 5 - - 0.0
29/06:30pm 11.3 9.9 8.9 85 1.2 SSW 6 7 3 4 - - 0.0
29/06:00pm 11.7 10.7 8.7 82 1.5 SSW 4 7 2 4 - - 0.0
29/05:30pm 12.6 11.5 8.3 75 2.1 S 4 7 2 4 - - 0.0
29/05:00pm 13.7 12.0 8.5 71 2.6 S 7 13 4 7 - - 0.0
29/04:30pm 13.9 12.5 8.9 72 2.5 SSE 6 9 3 5 - - 0.0
29/04:00pm 13.3 11.7 8.8 74 2.3 SSE 7 13 4 7 - - 0.0
29/03:30pm 13.6 12.0 8.9 73 2.4 SSE 7 13 4 7 - - 0.0
29/03:00pm 14.1 12.5 8.9 71 2.6 S 7 13 4 7 - - 0.0
29/02:30pm 13.6 12.1 8.4 71 2.6 SSE 6 9 3 5 - - 0.0
29/02:00pm 13.4 12.3 8.5 72 2.5 ESE 4 9 2 5 - - 0.0
29/01:30pm 12.9 11.5 8.8 76 2.1 S 6 9 3 5 - - 0.0
29/01:00pm 12.7 11.2 8.4 75 2.1 S 6 11 3 6 - - 0.0
29/12:30pm 12.7 11.6 8.4 75 2.1 SE 4 9 2 5 - - 0.0
29/12:00pm 12.2 10.8 8.9 80 1.7 ESE 6 11 3 6 - - 0.0
29/11:30am 12.0 11.0 8.8 81 1.6 SSE 4 9 2 5 - - 0.0
29/11:00am 10.8 10.3 9.2 90 0.8 NNW 2 6 1 3 - - 0.0
29/10:30am 9.8 9.1 8.6 92 0.6 SW 2 9 1 5 - - 0.0
29/10:00am 9.7 8.7 8.8 94 0.4 S 4 7 2 4 - - 0.0
29/09:30am 9.5 8.9 8.9 96 0.3 SSE 2 6 1 3 - - 0.0
29/09:00am 9.2 8.9 8.7 97 0.2 CALM 0 0 0 0 - - 0.2
29/08:30am 8.4 7.9 8.0 97 0.2 CALM 0 0 0 0 - - 0.2
29/08:00am 7.6 7.0 7.2 97 0.2 CALM 0 0 0 0 - - 0.2
29/07:30am 7.0 6.2 6.4 96 0.3 CALM 0 6 0 3 - - 0.0
29/07:00am 6.7 5.8 6.1 96 0.3 CALM 0 0 0 0 - - 0.0
29/06:30am 6.5 5.6 5.9 96 0.3 CALM 0 0 0 0 - - 0.0
29/06:00am 5.9 4.8 5.2 95 0.3 CALM 0 0 0 0 - - 0.0
29/05:30am 5.9 4.4 5.2 95 0.3 N 2 6 1 3 - - 0.0
29/05:00am 5.8 3.9 5.1 95 0.3 N 4 6 2 3 - - 0.0
29/04:30am 5.0 3.7 4.3 95 0.3 CALM 0 0 0 0 - - 0.0
29/04:00am 5.2 4.0 4.5 95 0.3 CALM 0 0 0 0 - - 0.0
29/03:30am 5.5 4.3 4.6 94 0.4 CALM 0 0 0 0 - - 0.0
29/03:00am 5.7 4.5 4.8 94 0.4 CALM 0 0 0 0 - - 0.0
29/02:30am 5.6 4.4 4.6 93 0.4 CALM 0 0 0 0 - - 0.0
29/02:00am 6.8 5.8 5.7 93 0.5 CALM 0 4 0 2 - - 0.0
29/01:30am 6.5 5.5 5.6 94 0.4 CALM 0 0 0 0 - - 0.0
29/01:00am 6.3 5.2 5.3 93 0.4 CALM 0 0 0 0 - - 0.0
29/12:30am 6.8 5.8 5.6 92 0.5 CALM 0 0 0 0 - - 0.0
29/12:00am 7.6 6.7 6.2 91 0.6 CALM 0 0 0 0 - - 0.0
 
Date/Time
EST
Temp
°C
App
Temp
°C
Dew
Point
Rel
Hum
%
Delta-T
°C
Wind Press
QNH
hPa
Press
MSL
hPa
Rain
since 9 am
mm
Dir
 
Spd
km/h
Gust
km/h
Spd
kts
Gust
kts
28/11:30pm 8.1 7.3 6.7 91 0.6 CALM 0 0 0 0 - - 0.0
28/11:00pm 8.2 7.4 6.5 89 0.8 CALM 0 0 0 0 - - 0.0
28/10:30pm 8.3 7.2 6.8 90 0.7 NNW 2 4 1 2 - - 0.0
28/10:00pm 8.3 7.6 6.8 90 0.7 CALM 0 2 0 1 - - 0.0
28/09:30pm 8.5 7.7 6.5 87 0.9 CALM 0 0 0 0 - - 0.0
28/09:00pm 9.0 8.2 6.6 85 1.1 CALM 0 0 0 0 - - 0.0
28/08:30pm 9.6 8.8 6.5 81 1.4 CALM 0 0 0 0 - - 0.0
28/08:00pm 10.6 9.7 6.0 73 2.1 CALM 0 2 0 1 - - 0.0
28/07:30pm 12.3 10.2 5.7 64 3.1 S 6 9 3 5 - - 0.0
28/07:00pm 13.0 11.0 6.1 63 3.3 S 6 9 3 5 - - 0.0
28/06:30pm 13.5 11.7 7.1 65 3.1 S 6 9 3 5 - - 0.0
28/06:00pm 14.9 12.9 7.2 60 3.8 SE 7 13 4 7 - - 0.0
28/05:30pm 16.1 14.1 8.8 62 3.8 SSE 9 13 5 7 - - 0.0
28/05:00pm 17.5 14.5 4.1 41 6.3 SSW 9 13 5 7 - - 0.0
28/04:30pm 18.0 15.1 4.6 41 6.4 SSW 9 15 5 8 - - 0.0
28/04:00pm 18.4 16.1 7.5 49 5.5 SSW 9 17 5 9 - - 0.0
28/03:30pm 18.8 16.6 7.9 49 5.6 SSW 9 15 5 8 - - 0.0
28/03:00pm 19.6 17.7 4.9 38 7.2 SW 4 11 2 6 - - 0.0
28/02:30pm 19.8 18.2 4.7 37 7.3 NW 2 7 1 4 - - 0.0
28/02:00pm 19.0 17.8 8.1 49 5.6 SSW 4 9 2 5 - - 0.0
28/01:30pm 18.7 17.1 8.1 50 5.5 SSW 6 11 3 6 - - 0.0
28/01:00pm 17.9 16.9 7.3 50 5.4 SE 2 6 1 3 - - 0.0
28/12:30pm 17.3 15.9 5.6 46 5.7 N 2 6 1 3 - - 0.0
28/12:00pm 16.0 14.8 6.4 53 4.7 N 2 7 1 4 - - 0.0
28/11:30am 16.1 15.4 8.6 61 3.8 N 2 7 1 4 - - 0.0
28/11:00am 14.8 13.5 7.8 63 3.5 NNE 4 9 2 5 - - 0.0
28/10:30am 13.3 11.5 7.3 67 2.9 NNW 6 7 3 4 - - 0.0

Other Formats:

Comma delimited format used in spreadsheet applications
http://www.bom.gov.au/fwo/IDV60801/IDV60801.95867.axf

JavaScript Object Notation format (JSON) in row-major order
http://www.bom.gov.au/fwo/IDV60801/IDV60801.95867.json